Time;durP1;ratioP1;P1;durP2;ratioP2;P2;SDS_P1;SDS_P2;PMS_P1;PMS_P2;Temp;Humidity;BMP_temperature;BMP_pressure;BME280_temperature;BME280_humidity;BME280_pressure;Samples;Min_cycle;Max_cycle;Signal;HPM_P1;HPM_P2
2020/12/22 00:02:13;;;;;;;4.33;3.93;;;;;;;9.65;100.00;96400.06;5053320;28;20165;-59
2020/12/22 00:04:38;;;;;;;4.10;3.70;;;;;;;9.71;100.00;96409.69;5052843;28;20301;-55
2020/12/22 00:07:04;;;;;;;5.03;4.00;;;;;;;9.78;100.00;96402.56;5053000;28;20290;-55
2020/12/22 00:09:29;;;;;;;3.87;3.57;;;;;;;9.77;100.00;96408.00;5053230;28;20205;-55
2020/12/22 00:11:54;;;;;;;4.90;3.53;;;;;;;9.83;100.00;96415.00;5051620;28;20186;-54
2020/12/22 00:14:20;;;;;;;3.60;3.30;;;;;;;9.87;100.00;96414.38;5053170;28;20180;-55
2020/12/22 00:16:45;;;;;;;3.53;3.23;;;;;;;9.95;100.00;96411.44;5052513;28;20182;-58
2020/12/22 00:19:11;;;;;;;3.47;3.17;;;;;;;10.08;100.00;96413.91;5053071;28;20276;-55
2020/12/22 00:21:36;;;;;;;4.03;3.70;;;;;;;10.14;100.00;96405.19;5052725;28;20726;-55
2020/12/22 00:24:02;;;;;;;3.40;3.20;;;;;;;10.20;100.00;96406.09;5052894;28;20279;-58
2020/12/22 00:26:28;;;;;;;3.70;2.80;;;;;;;10.04;100.00;96398.78;5052529;28;20210;-55
2020/12/22 00:28:54;;;;;;;3.30;3.10;;;;;;;10.16;100.00;96389.97;5052467;28;20213;-59
2020/12/22 00:31:19;;;;;;;3.40;3.10;;;;;;;10.13;100.00;96376.50;5052653;28;20176;-56
2020/12/22 00:33:45;;;;;;;2.90;2.70;;;;;;;10.19;100.00;96384.31;5052959;28;20757;-55
2020/12/22 00:36:10;;;;;;;2.30;2.20;;;;;;;10.17;100.00;96375.84;5052693;28;20175;-59
2020/12/22 00:38:36;;;;;;;2.90;2.70;;;;;;;10.18;100.00;96368.78;5052140;28;20169;-56
2020/12/22 00:41:02;;;;;;;2.50;2.40;;;;;;;10.35;100.00;96362.66;5028137;28;719245;-55
2020/12/22 00:43:27;;;;;;;3.03;2.80;;;;;;;10.33;100.00;96356.84;5053490;28;20619;-55
2020/12/22 00:45:53;;;;;;;3.80;2.20;;;;;;;10.44;100.00;96363.13;5053086;28;20502;-58
2020/12/22 00:48:18;;;;;;;2.23;2.10;;;;;;;10.57;100.00;96370.84;5052886;28;20782;-55
2020/12/22 00:50:44;;;;;;;3.80;1.90;;;;;;;10.44;100.00;96376.28;5053166;28;20237;-59
2020/12/22 00:53:09;;;;;;;1.90;1.80;;;;;;;10.43;100.00;96366.81;5053252;28;20234;-55
2020/12/22 00:55:34;;;;;;;2.00;1.90;;;;;;;10.54;100.00;96373.09;5052987;28;20542;-59
2020/12/22 00:58:00;;;;;;;2.30;2.10;;;;;;;10.65;100.00;96361.81;5052965;28;20171;-59
2020/12/22 01:00:25;;;;;;;2.23;2.13;;;;;;;10.55;100.00;96370.25;5053264;28;20198;-59
2020/12/22 01:02:50;;;;;;;2.20;2.10;;;;;;;10.62;100.00;96373.56;5053275;28;20258;-55
2020/12/22 01:05:16;;;;;;;2.27;2.03;;;;;;;10.66;100.00;96387.88;5053432;28;20661;-55
2020/12/22 01:07:41;;;;;;;1.90;1.80;;;;;;;10.68;100.00;96403.41;5052618;28;20592;-59
2020/12/22 01:10:06;;;;;;;2.50;1.53;;;;;;;10.70;100.00;96396.91;5053259;28;20190;-59
2020/12/22 01:12:32;;;;;;;1.63;1.53;;;;;;;10.72;100.00;96394.06;5053331;28;20183;-59
2020/12/22 01:14:57;;;;;;;1.77;1.67;;;;;;;10.73;100.00;96391.19;5053080;28;20215;-59
2020/12/22 01:17:23;;;;;;;1.93;1.83;;;;;;;10.63;100.00;96382.28;5052549;28;20273;-59
2020/12/22 01:19:48;;;;;;;5.60;1.90;;;;;;;10.66;100.00;96389.69;5051387;28;20205;-60
2020/12/22 01:22:13;;;;;;;1.40;1.30;;;;;;;10.76;100.00;96396.00;5053485;28;20190;-59
2020/12/22 01:24:39;;;;;;;1.50;1.23;;;;;;;10.71;100.00;96393.25;5053294;28;20194;-59
2020/12/22 01:27:04;;;;;;;1.30;1.30;;;;;;;10.79;100.00;96387.69;5052758;28;20172;-59
2020/12/22 01:29:30;;;;;;;1.40;1.40;;;;;;;10.81;100.00;96388.25;5052968;28;20214;-58
2020/12/22 01:31:55;;;;;;;1.50;1.40;;;;;;;10.66;100.00;96381.81;5052929;28;20539;-59
2020/12/22 01:34:21;;;;;;;1.30;1.20;;;;;;;10.87;100.00;96382.06;5053052;28;20179;-59
2020/12/22 01:36:46;;;;;;;1.00;1.00;;;;;;;10.89;100.00;96384.47;5052352;28;20190;-55
2020/12/22 01:39:12;;;;;;;1.00;1.00;;;;;;;10.99;100.00;96374.22;5052810;28;20285;-59
2020/12/22 01:41:37;;;;;;;1.00;0.90;;;;;;;11.03;100.00;96383.25;5053020;28;20217;-55
2020/12/22 01:44:17;;;;;;;0.93;0.93;;;;;;;10.93;100.00;96380.38;5052843;28;20179;-59
2020/12/22 01:46:48;;;;;;;0.80;0.80;;;;;;;10.99;100.00;96377.66;5052517;28;20179;-55
2020/12/22 01:49:18;;;;;;;0.60;0.50;;;;;;;10.83;100.00;96386.22;5052425;28;20465;-55
2020/12/22 01:51:45;;;;;;;0.50;0.50;;;;;;;11.04;100.00;96380.38;5052892;28;20872;-59
2020/12/22 01:54:10;;;;;;;0.60;0.60;;;;;;;11.09;100.00;96392.84;5052743;28;20884;-55
2020/12/22 01:56:37;;;;;;;0.53;0.53;;;;;;;11.21;100.00;96383.94;5052314;28;20494;-56
2020/12/22 01:59:03;;;;;;;1.23;0.67;;;;;;;11.22;100.00;96390.00;5052742;28;20175;-55
2020/12/22 02:01:31;;;;;;;0.67;0.47;;;;;;;11.27;100.00;96390.09;5052721;28;20877;-55
2020/12/22 02:03:58;;;;;;;0.70;0.63;;;;;;;11.30;100.00;96394.94;5052407;28;20914;-55
2020/12/22 02:06:23;;;;;;;0.50;0.50;;;;;;;11.25;100.00;96394.81;5052418;28;20521;-56
2020/12/22 02:08:48;;;;;;;0.60;0.50;;;;;;;11.17;100.00;96403.84;5052598;28;21003;-55
2020/12/22 02:11:25;;;;;;;0.70;0.50;;;;;;;11.28;100.00;96392.53;5052732;28;20563;-59
2020/12/22 02:13:51;;;;;;;0.60;0.60;;;;;;;11.25;100.00;96406.13;5052891;28;20183;-55
2020/12/22 02:16:18;;;;;;;0.50;0.50;;;;;;;11.41;100.00;96391.50;5051962;28;20487;-56
2020/12/22 02:18:44;;;;;;;0.40;0.30;;;;;;;11.34;100.00;96375.03;5052542;28;20441;-59
2020/12/22 02:21:09;;;;;;;0.70;0.60;;;;;;;11.43;100.00;96371.81;5052612;28;20453;-55
2020/12/22 02:23:34;;;;;;;0.50;0.40;;;;;;;11.33;100.00;96386.56;5052512;28;20418;-55
2020/12/22 02:26:00;;;;;;;0.40;0.40;;;;;;;11.30;100.00;96374.66;5052420;28;20706;-56
2020/12/22 02:28:25;;;;;;;0.40;0.40;;;;;;;11.29;100.00;96369.63;5053362;28;20249;-55
2020/12/22 02:30:50;;;;;;;0.40;0.40;;;;;;;11.31;100.00;96378.91;5055503;28;20253;-55
2020/12/22 02:33:16;;;;;;;0.60;0.50;;;;;;;11.31;100.00;96360.50;5055764;28;20173;-56
2020/12/22 02:35:41;;;;;;;0.40;0.40;;;;;;;11.33;100.00;96360.25;5056003;28;20203;-59
2020/12/22 02:38:06;;;;;;;0.60;0.60;;;;;;;11.40;100.00;96363.56;5055558;28;20167;-55
2020/12/22 02:40:32;;;;;;;0.40;0.40;;;;;;;11.33;100.00;96360.25;5055628;28;20221;-59
2020/12/22 02:43:12;;;;;;;0.40;0.40;;;;;;;11.32;100.00;96369.97;5055972;28;20200;-59
2020/12/22 02:45:44;;;;;;;0.30;0.30;;;;;;;11.31;100.00;96357.06;5056108;28;20586;-55
2020/12/22 02:48:11;;;;;;;0.50;0.50;;;;;;;11.33;100.00;96366.34;5055203;28;20966;-59
2020/12/22 02:50:37;;;;;;;1.03;0.30;;;;;;;11.36;100.00;96355.34;5055813;28;20434;-59
2020/12/22 02:53:03;;;;;;;0.40;0.40;;;;;;;11.38;100.00;96355.09;5055630;28;20467;-55
2020/12/22 02:55:29;;;;;;;1.13;0.80;;;;;;;11.43;100.00;96343.91;5054335;28;20529;-55
2020/12/22 02:57:54;;;;;;;0.40;0.40;;;;;;;11.48;100.00;96347.44;5054729;28;20497;-59
2020/12/22 03:00:20;;;;;;;0.60;0.60;;;;;;;11.41;100.00;96347.56;5055343;28;20195;-55
2020/12/22 03:02:46;;;;;;;0.50;0.50;;;;;;;11.25;100.00;96337.72;5055364;28;20640;-59
2020/12/22 03:05:11;;;;;;;2.50;0.73;;;;;;;11.39;100.00;96349.59;5055499;28;20429;-59
2020/12/22 03:07:37;;;;;;;1.50;0.70;;;;;;;11.43;100.00;96342.84;5054960;28;20202;-59
2020/12/22 03:10:06;;;;;;;1.23;0.80;;;;;;;11.48;100.00;96334.28;5055292;28;20616;-59
2020/12/22 03:12:31;;;;;;;0.60;0.60;;;;;;;11.55;100.00;96324.44;5055390;28;20186;-60
2020/12/22 03:14:57;;;;;;;1.53;0.67;;;;;;;11.55;100.00;96337.59;5053911;28;20422;-59
2020/12/22 03:17:22;;;;;;;0.50;0.50;;;;;;;11.53;100.00;96318.59;5054944;28;20198;-58
2020/12/22 03:19:48;;;;;;;0.60;0.57;;;;;;;11.54;100.00;96320.19;5055181;28;20545;-59
2020/12/22 03:22:13;;;;;;;1.23;0.30;;;;;;;11.52;100.00;96319.66;5055266;28;20178;-55
2020/12/22 03:24:38;;;;;;;0.50;0.50;;;;;;;11.45;100.00;96337.34;5054909;28;20175;-55
2020/12/22 03:27:04;;;;;;;1.33;0.40;;;;;;;11.54;100.00;96328.09;5054841;28;20175;-59
2020/12/22 03:29:29;;;;;;;0.30;0.30;;;;;;;11.62;100.00;96324.28;5054978;28;20200;-59
2020/12/22 03:31:54;;;;;;;0.40;0.40;;;;;;;11.51;100.00;96314.59;5055041;28;20164;-60
2020/12/22 03:34:20;;;;;;;0.40;0.40;;;;;;;11.52;100.00;96326.72;5054782;28;20638;-59
2020/12/22 03:36:50;;;;;;;0.60;0.40;;;;;;;11.45;100.00;96316.31;5054445;28;20178;-55
2020/12/22 03:39:15;;;;;;;0.40;0.40;;;;;;;11.46;100.00;96312.66;5054036;28;20672;-55
2020/12/22 03:41:40;;;;;;;0.40;0.37;;;;;;;11.32;100.00;96312.09;5054848;28;20440;-56
2020/12/22 03:44:06;;;;;;;0.50;0.50;;;;;;;11.42;100.00;96314.16;5054702;28;20178;-59
2020/12/22 03:46:31;;;;;;;0.37;0.37;;;;;;;11.41;100.00;96323.09;5054419;28;20281;-55
2020/12/22 03:48:56;;;;;;;0.53;0.40;;;;;;;11.44;100.00;96320.00;5054350;28;20195;-55
2020/12/22 03:51:22;;;;;;;0.30;0.30;;;;;;;11.45;100.00;96326.84;5054170;28;20629;-59
2020/12/22 03:53:47;;;;;;;0.50;0.50;;;;;;;11.51;100.00;96335.63;5054300;28;20243;-55
2020/12/22 03:56:12;;;;;;;0.63;0.30;;;;;;;11.55;100.00;96337.59;5054817;28;20179;-55
2020/12/22 03:58:38;;;;;;;1.23;0.33;;;;;;;11.51;100.00;96365.38;5053958;28;20172;-59
2020/12/22 04:01:03;;;;;;;0.40;0.40;;;;;;;11.47;100.00;96345.06;5054365;28;20294;-59
2020/12/22 04:03:28;;;;;;;0.50;0.50;;;;;;;11.52;100.00;96345.16;5054318;28;20629;-59
2020/12/22 04:05:54;;;;;;;0.30;0.30;;;;;;;11.47;100.00;96361.63;5053911;28;20185;-54
2020/12/22 04:08:19;;;;;;;1.03;0.30;;;;;;;11.55;100.00;96356.00;5054018;28;20661;-59
2020/12/22 04:10:45;;;;;;;0.40;0.40;;;;;;;11.55;100.00;96361.28;5054330;28;20191;-55
2020/12/22 04:13:10;;;;;;;0.50;0.37;;;;;;;11.59;100.00;96380.84;5054552;28;20199;-55
2020/12/22 04:15:36;;;;;;;0.30;0.30;;;;;;;11.64;100.00;96373.03;5054400;28;20525;-55
2020/12/22 04:18:02;;;;;;;0.40;0.40;;;;;;;11.72;100.00;96366.66;5053797;28;20176;-55
2020/12/22 04:20:28;;;;;;;0.40;0.40;;;;;;;11.86;100.00;96363.53;5053432;28;20199;-59
2020/12/22 04:22:53;;;;;;;0.50;0.30;;;;;;;11.74;100.00;96375.13;5054356;28;20822;-55
2020/12/22 04:25:19;;;;;;;1.03;0.40;;;;;;;11.70;100.00;96368.72;5053905;28;20524;-55
2020/12/22 04:27:44;;;;;;;0.40;0.40;;;;;;;11.71;100.00;96368.47;5053371;28;20234;-59
2020/12/22 04:30:09;;;;;;;0.40;0.30;;;;;;;11.72;100.00;96364.81;5053668;28;20187;-59
2020/12/22 04:32:35;;;;;;;2.00;0.40;;;;;;;11.82;100.00;96375.56;5053975;28;20229;-55
2020/12/22 04:35:00;;;;;;;0.70;0.30;;;;;;;11.79;100.00;96370.75;5053253;28;20697;-59
2020/12/22 04:37:26;;;;;;;0.30;0.30;;;;;;;11.82;100.00;96369.47;5053484;28;20545;-59
2020/12/22 04:39:52;;;;;;;1.00;0.30;;;;;;;11.78;100.00;96371.78;5053104;28;20237;-55
2020/12/22 04:42:21;;;;;;;0.33;0.30;;;;;;;11.73;100.00;96361.16;5053482;28;20510;-55
2020/12/22 04:44:50;;;;;;;1.17;0.40;;;;;;;11.89;100.00;96380.69;5053708;28;20741;-55
2020/12/22 04:47:20;;;;;;;0.40;0.30;;;;;;;11.93;100.00;96384.44;5053203;28;20460;-59
2020/12/22 04:49:50;;;;;;;0.40;0.30;;;;;;;11.65;100.00;96381.78;5052934;28;20442;-59
2020/12/22 04:52:16;;;;;;;1.90;0.97;;;;;;;11.78;100.00;96366.50;5053243;28;20409;-56
2020/12/22 04:54:41;;;;;;;0.40;0.40;;;;;;;11.73;100.00;96371.69;5053481;28;20406;-55
2020/12/22 04:57:07;;;;;;;2.70;0.60;;;;;;;11.89;100.00;96365.69;5053026;28;20582;-59
2020/12/22 04:59:33;;;;;;;1.63;0.40;;;;;;;11.82;100.00;96366.84;5053055;28;20722;-55
2020/12/22 05:01:59;;;;;;;1.07;0.50;;;;;;;11.83;100.00;96360.56;5052898;28;20183;-59
2020/12/22 05:04:32;;;;;;;0.40;0.30;;;;;;;11.65;100.00;96361.50;5053162;28;20171;-56
2020/12/22 05:06:58;;;;;;;0.37;0.33;;;;;;;11.73;100.00;96355.88;5052970;28;20413;-60
2020/12/22 05:09:23;;;;;;;0.70;0.30;;;;;;;11.75;100.00;96356.47;5051897;28;20465;-59
2020/12/22 05:11:48;;;;;;;1.00;0.37;;;;;;;11.85;100.00;96348.75;5053270;28;20167;-61
2020/12/22 05:14:14;;;;;;;0.60;0.60;;;;;;;11.77;100.00;96356.22;5053280;28;20642;-60
2020/12/22 05:16:39;;;;;;;0.87;0.30;;;;;;;11.76;100.00;96362.53;5052518;28;20523;-56
2020/12/22 05:19:04;;;;;;;0.37;0.33;;;;;;;11.83;100.00;96379.78;5053013;28;20171;-55
2020/12/22 05:21:34;;;;;;;0.40;0.40;;;;;;;11.81;100.00;96371.31;5053050;28;20704;-55
2020/12/22 05:24:00;;;;;;;1.90;0.40;;;;;;;11.69;100.00;96381.06;5053002;28;20172;-55
2020/12/22 05:26:30;;;;;;;0.40;0.40;;;;;;;11.84;100.00;96388.47;5052723;28;20467;-56
2020/12/22 05:28:56;;;;;;;0.50;0.30;;;;;;;11.75;100.00;96395.94;5052682;28;20455;-55
2020/12/22 05:31:21;;;;;;;0.40;0.37;;;;;;;11.87;100.00;96383.53;5052899;28;20410;-56
2020/12/22 05:33:47;;;;;;;0.50;0.40;;;;;;;11.83;100.00;96392.94;5052929;28;20434;-59
2020/12/22 05:36:13;;;;;;;0.50;0.50;;;;;;;11.82;100.00;96390.53;5053209;28;20167;-55
2020/12/22 05:38:43;;;;;;;0.77;0.40;;;;;;;11.92;100.00;96382.88;5052025;28;20529;-60
2020/12/22 05:41:09;;;;;;;0.40;0.33;;;;;;;11.85;100.00;96379.56;5052692;28;20437;-60
2020/12/22 05:43:42;;;;;;;0.40;0.40;;;;;;;11.87;100.00;96378.28;5052656;28;20758;-60
2020/12/22 05:46:10;;;;;;;1.47;0.40;;;;;;;12.07;100.00;96372.59;5052781;28;20744;-55
2020/12/22 05:48:36;;;;;;;0.50;0.50;;;;;;;12.09;100.00;96381.88;5052342;28;20449;-56
2020/12/22 05:51:04;;;;;;;0.30;0.30;;;;;;;11.94;100.00;96388.69;5052716;28;20426;-55
2020/12/22 05:53:29;;;;;;;0.30;0.30;;;;;;;11.94;100.00;96397.38;5052843;28;20428;-55
2020/12/22 05:55:55;;;;;;;2.60;1.40;;;;;;;12.08;100.00;96403.97;5052419;28;20908;-60
2020/12/22 05:58:28;;;;;;;1.20;1.00;;;;;;;11.94;100.00;96407.91;5051762;28;20168;-56
2020/12/22 06:00:54;;;;;;;1.70;0.43;;;;;;;11.93;100.00;96424.75;5052308;28;20195;-60
2020/12/22 06:03:20;;;;;;;0.60;0.40;;;;;;;11.98;100.00;96422.22;5053838;28;20884;-56
2020/12/22 06:05:46;;;;;;;0.40;0.40;;;;;;;12.04;100.00;96417.84;5056175;28;20172;-59
2020/12/22 06:08:13;;;;;;;0.70;0.63;;;;;;;11.87;100.00;96423.03;5056146;28;20502;-55
2020/12/22 06:10:40;;;;;;;0.80;0.57;;;;;;;12.01;100.00;96444.66;5056430;28;20187;-60
2020/12/22 06:13:07;;;;;;;0.40;0.40;;;;;;;12.05;100.00;96437.88;5055706;28;20428;-60
2020/12/22 06:15:33;;;;;;;0.80;0.30;;;;;;;12.00;100.00;96429.88;5055798;28;20418;-59
2020/12/22 06:18:01;;;;;;;0.40;0.40;;;;;;;12.12;100.00;96413.00;5056097;28;20415;-55
2020/12/22 06:20:28;;;;;;;0.50;0.40;;;;;;;12.20;100.00;96431.09;5056290;28;20556;-60
2020/12/22 06:23:05;;;;;;;0.30;0.30;;;;;;;12.16;100.00;96424.69;5054963;28;20901;-60
2020/12/22 06:25:30;;;;;;;0.43;0.43;;;;;;;11.93;100.00;96430.03;5056011;28;20907;-59
2020/12/22 06:27:56;;;;;;;0.40;0.40;;;;;;;11.97;100.00;96435.63;5055572;28;20445;-55
2020/12/22 06:30:40;;;;;;;1.33;0.40;;;;;;;12.16;100.00;96435.22;5055435;28;20745;-60
2020/12/22 06:33:23;;;;;;;0.60;0.40;;;;;;;12.19;100.00;96418.94;5056135;28;20408;-56
2020/12/22 06:36:07;;;;;;;0.50;0.50;;;;;;;12.22;100.00;96420.31;5055894;28;20413;-56
2020/12/22 06:38:58;;;;;;;0.40;0.40;;;;;;;12.22;100.00;96409.78;5055836;28;20413;-60
2020/12/22 06:41:32;;;;;;;1.63;1.27;;;;;;;12.29;100.00;96410.44;5055755;28;20431;-55
2020/12/22 06:44:09;;;;;;;0.40;0.40;;;;;;;12.24;100.00;96423.53;5055703;28;20472;-55
2020/12/22 06:46:35;;;;;;;1.27;0.60;;;;;;;12.37;100.00;96423.25;5055509;28;20488;-56
2020/12/22 06:49:01;;;;;;;0.80;0.30;;;;;;;12.24;100.00;96420.91;5055367;28;20493;-56
2020/12/22 06:51:36;;;;;;;0.50;0.50;;;;;;;12.06;100.00;96418.44;5055155;28;20186;-54
2020/12/22 06:54:22;;;;;;;0.33;0.30;;;;;;;12.19;100.00;96426.06;5055584;28;20417;-55
2020/12/22 06:56:50;;;;;;;1.17;0.50;;;;;;;12.26;100.00;96438.06;5054763;28;20418;-55
2020/12/22 06:59:37;;;;;;;0.50;0.43;;;;;;;12.43;100.00;96431.00;5054670;28;20461;-59
2020/12/22 07:02:02;;;;;;;0.67;0.30;;;;;;;12.28;100.00;96443.88;5053871;28;20436;-59
2020/12/22 07:04:28;;;;;;;0.40;0.40;;;;;;;12.36;100.00;96471.69;5055037;28;20936;-55
2020/12/22 07:06:56;;;;;;;0.40;0.40;;;;;;;12.38;100.00;96448.56;5054472;28;20198;-56
2020/12/22 07:09:21;;;;;;;0.67;0.37;;;;;;;12.39;100.00;96437.00;5053283;28;20536;-56
2020/12/22 07:11:48;;;;;;;0.90;0.43;;;;;;;12.58;100.00;96438.41;5054580;28;20429;-59
2020/12/22 07:14:16;;;;;;;0.30;0.30;;;;;;;12.60;99.95;96438.16;5054990;28;20203;-55
2020/12/22 07:16:54;;;;;;;0.40;0.40;;;;;;;12.49;100.00;96439.81;5054968;28;20430;-60
2020/12/22 07:19:28;;;;;;;0.83;0.40;;;;;;;12.27;100.00;96450.19;5054608;28;20556;-59
2020/12/22 07:21:57;;;;;;;1.27;0.60;;;;;;;12.40;100.00;96455.22;5054678;28;20422;-60
2020/12/22 07:24:24;;;;;;;1.43;0.50;;;;;;;12.47;100.00;96448.97;5054692;28;20769;-60
2020/12/22 07:26:49;;;;;;;0.50;0.50;;;;;;;12.64;99.52;96455.13;5054643;28;20432;-60
2020/12/22 07:29:15;;;;;;;0.40;0.40;;;;;;;12.58;99.07;96446.31;5054659;28;20461;-55
2020/12/22 07:31:42;;;;;;;0.30;0.30;;;;;;;12.72;98.48;96444.19;5055140;28;20171;-55
2020/12/22 07:34:08;;;;;;;1.00;0.40;;;;;;;12.64;98.05;96448.00;5054637;28;20195;-60
2020/12/22 07:36:34;;;;;;;0.40;0.40;;;;;;;12.68;98.10;96451.75;5054202;28;20426;-56
2020/12/22 07:39:09;;;;;;;0.43;0.43;;;;;;;12.64;98.43;96457.75;5054595;28;20775;-60
2020/12/22 07:41:34;;;;;;;0.40;0.40;;;;;;;12.79;97.26;96450.13;5054714;28;20174;-55
2020/12/22 07:44:07;;;;;;;0.60;0.30;;;;;;;12.68;97.80;96464.94;5052876;28;20476;-56
2020/12/22 07:46:33;;;;;;;0.40;0.40;;;;;;;12.78;97.11;96474.88;5054215;28;20735;-55
2020/12/22 07:49:02;;;;;;;0.50;0.40;;;;;;;12.81;97.45;96463.88;5053914;28;20548;-56
2020/12/22 07:51:28;;;;;;;0.40;0.30;;;;;;;12.93;97.06;96451.41;5053828;28;20171;-59
2020/12/22 07:54:05;;;;;;;0.50;0.50;;;;;;;12.90;96.30;96465.88;5054194;28;20414;-59
2020/12/22 07:56:38;;;;;;;0.30;0.30;;;;;;;13.01;95.78;96465.00;5054132;28;20429;-59
2020/12/22 07:59:06;;;;;;;1.83;0.40;;;;;;;12.70;97.42;96473.41;5053850;28;20414;-55
2020/12/22 08:01:39;;;;;;;0.50;0.40;;;;;;;12.87;96.52;96471.63;5054225;28;20606;-56
2020/12/22 08:04:18;;;;;;;0.40;0.30;;;;;;;12.92;96.48;96471.72;5048870;28;20417;-56
2020/12/22 08:06:57;;;;;;;0.40;0.30;;;;;;;12.87;96.01;96473.47;5033995;28;20406;-55
2020/12/22 08:09:24;;;;;;;0.50;0.40;;;;;;;12.89;96.54;96469.56;5046889;28;20449;-55
2020/12/22 08:11:52;;;;;;;0.40;0.40;;;;;;;12.87;97.21;96462.91;5053985;28;20418;-60
2020/12/22 08:14:19;;;;;;;1.13;0.40;;;;;;;12.98;96.18;96469.97;5054138;28;20453;-60
2020/12/22 08:16:45;;;;;;;0.37;0.37;;;;;;;12.93;96.17;96473.31;5053081;28;20414;-56
2020/12/22 08:19:10;;;;;;;0.50;0.40;;;;;;;12.83;97.10;96480.22;5053872;28;20541;-56
2020/12/22 08:21:36;;;;;;;0.40;0.30;;;;;;;12.88;96.73;96493.53;5052760;28;20421;-60
2020/12/22 08:24:02;;;;;;;0.60;0.40;;;;;;;12.83;96.96;96474.97;5053439;28;20175;-56
2020/12/22 08:26:28;;;;;;;0.87;0.30;;;;;;;12.90;96.47;96480.91;5052679;28;20194;-58
2020/12/22 08:28:55;;;;;;;0.30;0.30;;;;;;;12.86;97.61;96485.06;5053670;28;20947;-62
2020/12/22 08:31:22;;;;;;;0.50;0.30;;;;;;;12.85;97.63;96499.25;5053634;28;20258;-62
2020/12/22 08:33:59;;;;;;;0.40;0.40;;;;;;;12.81;98.06;96487.59;5053801;28;20456;-62
2020/12/22 08:36:28;;;;;;;0.30;0.30;;;;;;;12.85;97.41;96486.06;5053359;28;20458;-62
2020/12/22 08:39:14;;;;;;;0.30;0.30;;;;;;;12.64;98.95;96497.28;5053021;28;20414;-62
2020/12/22 08:41:44;;;;;;;1.43;0.47;;;;;;;12.80;97.94;96501.81;5053635;28;20817;-57
2020/12/22 08:44:11;;;;;;;0.40;0.40;;;;;;;12.95;97.12;96499.47;5033744;28;20415;-58
2020/12/22 08:46:37;;;;;;;0.50;0.50;;;;;;;12.87;97.63;96515.66;5033429;28;21230;-63
2020/12/22 08:49:07;;;;;;;0.40;0.40;;;;;;;12.94;97.18;96506.56;5053128;28;20458;-58
2020/12/22 08:51:33;;;;;;;0.50;0.30;;;;;;;13.00;96.27;96499.53;5053327;28;20860;-57
2020/12/22 08:54:01;;;;;;;0.30;0.30;;;;;;;12.86;97.04;96520.16;5052100;28;20425;-58
2020/12/22 08:56:26;;;;;;;0.97;0.30;;;;;;;12.94;96.88;96511.03;5052818;28;20569;-61
2020/12/22 08:59:03;;;;;;;0.40;0.40;;;;;;;13.04;96.67;96514.72;5053394;28;20476;-61
2020/12/22 09:01:47;;;;;;;1.03;0.50;;;;;;;12.93;96.80;96520.81;5053017;28;20273;-62
2020/12/22 09:04:14;;;;;;;0.60;0.40;;;;;;;13.01;97.27;96530.16;5053292;28;20409;-62
2020/12/22 09:06:44;;;;;;;0.50;0.50;;;;;;;12.89;97.95;96532.84;5052533;28;20501;-62
2020/12/22 09:09:22;;;;;;;0.70;0.40;;;;;;;13.01;97.93;96528.31;5053061;28;20968;-61
2020/12/22 09:11:47;;;;;;;1.70;0.50;;;;;;;12.99;98.33;96538.31;5052699;28;20442;-62
2020/12/22 09:14:15;;;;;;;0.40;0.40;;;;;;;13.04;97.84;96527.09;5051377;28;20906;-64
2020/12/22 09:16:48;;;;;;;0.40;0.40;;;;;;;13.00;99.01;96539.09;5048494;28;20216;-64
2020/12/22 09:19:19;;;;;;;0.30;0.30;;;;;;;12.95;99.09;96529.28;5049613;28;20513;-64
2020/12/22 09:21:45;;;;;;;0.40;0.40;;;;;;;12.87;99.96;96539.38;5049727;28;20410;-63
2020/12/22 09:24:18;;;;;;;0.40;0.40;;;;;;;12.93;99.54;96541.09;5049303;28;20563;-64
2020/12/22 09:27:01;;;;;;;0.50;0.50;;;;;;;12.85;100.00;96544.09;5048680;28;20470;-63
2020/12/22 09:29:27;;;;;;;0.40;0.40;;;;;;;12.71;100.00;96532.22;5049487;28;20461;-64
2020/12/22 09:31:53;;;;;;;0.40;0.40;;;;;;;12.75;100.00;96525.44;5049592;28;20456;-63
2020/12/22 09:34:20;;;;;;;0.30;0.30;;;;;;;12.79;100.00;96529.22;5047466;28;20410;-64
2020/12/22 09:36:56;;;;;;;0.50;0.50;;;;;;;12.56;100.00;96521.38;5048968;28;20495;-63
2020/12/22 09:39:23;;;;;;;0.40;0.40;;;;;;;12.63;100.00;96525.47;5052348;28;20451;-64
2020/12/22 09:41:49;;;;;;;0.60;0.50;;;;;;;12.96;100.00;96522.97;5053778;28;20402;-65
2020/12/22 09:44:15;;;;;;;0.80;0.43;;;;;;;12.92;100.00;96529.72;5053566;28;20404;-64
2020/12/22 09:46:41;;;;;;;4.57;0.40;;;;;;;12.74;100.00;96532.56;5053090;28;20581;-62
2020/12/22 09:49:06;;;;;;;0.40;0.30;;;;;;;12.66;100.00;96535.56;5053006;28;20214;-64
2020/12/22 09:51:32;;;;;;;1.17;0.47;;;;;;;12.71;100.00;96542.78;5052592;28;20168;-62
2020/12/22 09:53:57;;;;;;;1.27;0.47;;;;;;;12.73;100.00;96536.25;5053346;28;20179;-64
2020/12/22 09:56:23;;;;;;;3.17;0.50;;;;;;;12.65;100.00;96544.50;5052924;28;20262;-64
2020/12/22 09:58:48;;;;;;;0.50;0.40;;;;;;;12.73;100.00;96541.50;5053103;28;20172;-64
2020/12/22 10:01:13;;;;;;;1.17;0.30;;;;;;;12.95;100.00;96539.84;5053213;28;20168;-64
2020/12/22 10:03:39;;;;;;;1.53;0.33;;;;;;;12.93;100.00;96533.19;5052713;28;20894;-65
2020/12/22 10:06:04;;;;;;;0.33;0.33;;;;;;;12.88;100.00;96541.00;5051697;28;20171;-58
2020/12/22 10:08:30;;;;;;;0.40;0.30;;;;;;;12.91;100.00;96536.06;5049530;28;20207;-65
2020/12/22 10:10:55;;;;;;;0.50;0.50;;;;;;;12.95;100.00;96539.03;5052351;28;20206;-59
2020/12/22 10:13:20;;;;;;;0.50;0.50;;;;;;;12.90;100.00;96537.06;5052451;28;20217;-60
2020/12/22 10:15:47;;;;;;;0.50;0.43;;;;;;;13.03;99.76;96534.19;5052230;28;20179;-60
2020/12/22 10:18:12;;;;;;;0.40;0.40;;;;;;;13.01;100.00;96543.34;5052285;28;20167;-66
2020/12/22 10:20:38;;;;;;;0.63;0.40;;;;;;;13.05;99.72;96541.88;5055169;28;20498;-58
2020/12/22 10:23:04;;;;;;;0.43;0.40;;;;;;;12.94;100.00;96540.03;5055981;28;20250;-59
2020/12/22 10:25:30;;;;;;;0.50;0.40;;;;;;;12.97;99.42;96540.38;5054959;28;21005;-67
2020/12/22 10:27:55;;;;;;;2.10;0.50;;;;;;;13.14;99.24;96543.91;5055691;28;20202;-66
2020/12/22 10:30:21;;;;;;;0.57;0.30;;;;;;;13.20;98.44;96542.97;5055983;28;20421;-62
2020/12/22 10:32:46;;;;;;;1.07;0.33;;;;;;;13.11;98.49;96549.66;5056260;28;20242;-57
2020/12/22 10:35:11;;;;;;;1.50;0.30;;;;;;;13.07;98.96;96559.06;5056096;28;20202;-59
2020/12/22 10:37:37;;;;;;;0.80;0.40;;;;;;;13.10;98.31;96544.59;5055304;28;20657;-64
2020/12/22 10:40:03;;;;;;;0.30;0.30;;;;;;;13.12;98.74;96543.31;5055607;28;20210;-65
2020/12/22 10:42:28;;;;;;;0.93;0.50;;;;;;;13.19;97.80;96551.91;5055928;28;20599;-64
2020/12/22 10:44:54;;;;;;;0.50;0.30;;;;;;;13.26;97.45;96551.75;5055896;28;20398;-63
2020/12/22 10:47:19;;;;;;;0.93;0.30;;;;;;;13.33;97.27;96555.81;5054757;28;20194;-58
2020/12/22 10:49:44;;;;;;;0.40;0.30;;;;;;;13.27;97.52;96543.59;5054521;28;20191;-69
2020/12/22 10:52:10;;;;;;;0.70;0.40;;;;;;;13.28;97.18;96547.84;5055292;28;20179;-61
2020/12/22 10:54:35;;;;;;;0.40;0.33;;;;;;;13.32;96.95;96545.50;5055653;28;20242;-70
2020/12/22 10:57:00;;;;;;;1.37;0.60;;;;;;;13.32;96.59;96553.44;5055054;28;20171;-58
2020/12/22 10:59:26;;;;;;;0.30;0.30;;;;;;;13.52;96.40;96553.78;5055415;28;20187;-60
2020/12/22 11:01:51;;;;;;;0.50;0.40;;;;;;;13.41;96.63;96557.28;5055622;28;20226;-61
2020/12/22 11:04:17;;;;;;;0.40;0.33;;;;;;;13.46;96.52;96544.16;5055205;28;20180;-62
2020/12/22 11:06:57;;;;;;;0.30;0.30;;;;;;;13.33;96.79;96550.56;5053595;28;20191;-62
2020/12/22 11:09:23;;;;;;;0.70;0.40;;;;;;;13.46;96.15;96557.38;5051621;28;20599;-74
2020/12/22 11:11:48;;;;;;;1.37;0.40;;;;;;;13.41;96.33;96552.00;5055516;28;20858;-69
2020/12/22 11:14:14;;;;;;;0.40;0.40;;;;;;;13.37;96.29;96564.06;5054619;28;20233;-67
2020/12/22 11:16:39;;;;;;;0.40;0.40;;;;;;;13.56;95.85;96557.56;5054711;28;20167;-58
2020/12/22 11:19:05;;;;;;;0.50;0.50;;;;;;;13.33;96.60;96558.47;5054763;28;20642;-62
2020/12/22 11:21:30;;;;;;;0.50;0.50;;;;;;;13.44;96.45;96554.97;5055097;28;20191;-62
2020/12/22 11:23:56;;;;;;;3.30;0.53;;;;;;;13.50;96.19;96573.56;5051357;28;20184;-58
2020/12/22 11:26:25;;;;;;;0.63;0.40;;;;;;;13.57;95.74;96558.34;5051390;28;20250;-60
2020/12/22 11:28:51;;;;;;;0.40;0.40;;;;;;;13.70;95.63;96558.03;5051442;28;20225;-62